Time;durP1;ratioP1;P1;durP2;ratioP2;P2;SDS_P1;SDS_P2;PMS_P1;PMS_P2;Temp;Humidity;BMP_temperature;BMP_pressure;BME280_temperature;BME280_humidity;BME280_pressure;Samples;Min_cycle;Max_cycle;Signal;HPM_P1;HPM_P2
2022/11/07 00:00:18;;;;;;;595.90;192.17;;;8.80;99.90;;;;;;5121629;27;20584;-51
2022/11/07 00:02:46;;;;;;;875.03;175.97;;;8.80;99.90;;;;;;5124724;27;20249;-51
2022/11/07 00:05:14;;;;;;;1418.70;299.17;;;8.80;99.90;;;;;;5129432;27;20794;-50
2022/11/07 00:07:42;;;;;;;767.63;180.73;;;8.80;99.90;;;;;;5124722;27;20234;-51
2022/11/07 00:10:10;;;;;;;337.53;112.57;;;8.80;99.90;;;;;;5122076;27;20302;-50
2022/11/07 00:12:38;;;;;;;444.57;116.70;;;8.80;99.90;;;;;;5117097;27;20242;-51
2022/11/07 00:15:09;;;;;;;1495.03;357.93;;;8.80;99.90;;;;;;5122195;27;20298;-51
2022/11/07 00:17:37;;;;;;;864.47;201.17;;;8.80;99.90;;;;;;5123823;27;20229;-51
2022/11/07 00:20:06;;;;;;;731.57;192.93;;;8.80;99.90;;;;;;5121260;27;20293;-49
2022/11/07 00:22:34;;;;;;;1800.63;364.50;;;8.80;99.90;;;;;;5128970;27;20235;-51
2022/11/07 00:25:03;;;;;;;855.90;169.40;;;8.90;99.90;;;;;;5121865;27;20206;-51
2022/11/07 00:27:31;;;;;;;355.77;123.97;;;8.90;99.90;;;;;;5125685;27;20296;-51
2022/11/07 00:29:59;;;;;;;523.90;119.23;;;8.90;99.90;;;;;;5124766;27;20216;-49
2022/11/07 00:32:28;;;;;;;503.10;144.77;;;9.00;99.90;;;;;;5120870;27;20285;-50
2022/11/07 00:34:57;;;;;;;718.43;203.73;;;9.00;99.90;;;;;;5122177;27;20290;-50
2022/11/07 00:37:25;;;;;;;1292.73;239.40;;;9.00;99.90;;;;;;5125496;27;20207;-50
2022/11/07 00:39:53;;;;;;;621.67;190.60;;;9.00;99.90;;;;;;5129194;27;20237;-50
2022/11/07 00:42:21;;;;;;;654.83;195.10;;;9.00;99.90;;;;;;5129144;27;20195;-51
2022/11/07 00:44:49;;;;;;;1320.07;230.13;;;8.90;99.90;;;;;;5120959;27;20205;-52
2022/11/07 00:47:17;;;;;;;324.27;91.93;;;9.00;99.90;;;;;;5119412;27;20219;-50
2022/11/07 00:49:47;;;;;;;596.80;166.83;;;8.90;99.90;;;;;;5125696;27;20202;-51
2022/11/07 00:52:15;;;;;;;702.20;226.47;;;8.90;99.90;;;;;;5124804;27;20227;-51
2022/11/07 00:54:43;;;;;;;1781.73;389.70;;;8.90;99.90;;;;;;5119386;27;20207;-51
2022/11/07 00:57:11;;;;;;;822.33;162.07;;;8.80;99.90;;;;;;5126358;27;20228;-50
2022/11/07 00:59:39;;;;;;;490.27;145.10;;;8.90;99.90;;;;;;5127376;27;20238;-50
2022/11/07 01:02:07;;;;;;;1422.17;315.53;;;8.90;99.90;;;;;;5120221;27;20250;-51
2022/11/07 01:07:23;;;;;;;369.00;114.17;;;8.90;99.90;;;;;;5124306;27;20217;-50
2022/11/07 01:09:52;;;;;;;764.87;192.30;;;8.90;99.90;;;;;;5120428;27;20230;-51
2022/11/07 01:12:20;;;;;;;366.33;102.80;;;8.90;99.90;;;;;;5120396;27;20292;-51
2022/11/07 01:14:48;;;;;;;1383.83;309.60;;;8.90;99.90;;;;;;5128168;28;20290;-51
2022/11/07 01:17:16;;;;;;;695.77;160.57;;;8.90;99.90;;;;;;5125660;27;20286;-51
2022/11/07 01:19:44;;;;;;;875.50;215.23;;;8.90;99.90;;;;;;5116791;27;20208;-50
2022/11/07 01:22:12;;;;;;;812.07;160.70;;;8.90;99.90;;;;;;5125950;27;20314;-50
2022/11/07 01:24:42;;;;;;;1439.83;394.07;;;8.90;99.90;;;;;;5120559;27;20239;-50
2022/11/07 01:27:10;;;;;;;769.90;170.47;;;8.90;99.90;;;;;;5127059;27;20874;-50
2022/11/07 01:29:38;;;;;;;389.57;104.80;;;8.90;99.90;;;;;;5116052;27;20306;-50
2022/11/07 01:32:06;;;;;;;643.87;224.17;;;8.90;99.90;;;;;;5120632;27;20303;-50
2022/11/07 01:34:34;;;;;;;816.60;153.17;;;9.00;99.90;;;;;;5120880;27;20632;-51
2022/11/07 01:37:02;;;;;;;695.80;143.50;;;9.00;99.90;;;;;;5125484;27;20250;-50
2022/11/07 01:39:30;;;;;;;1934.80;386.30;;;9.00;99.90;;;;;;5131501;27;20246;-50
2022/11/07 01:42:00;;;;;;;457.80;125.93;;;8.90;99.90;;;;;;5127329;27;20665;-51
2022/11/07 01:44:55;;;;;;;1999.90;520.47;;;8.90;99.90;;;;;;5123558;27;20730;-50
2022/11/07 01:47:26;;;;;;;1999.90;435.97;;;8.90;99.90;;;;;;5129349;27;20319;-50
2022/11/07 01:49:56;;;;;;;1021.60;186.87;;;8.90;99.90;;;;;;5131062;27;20207;-51
2022/11/07 01:52:26;;;;;;;1999.90;445.40;;;8.90;99.90;;;;;;5128548;27;20211;-51
2022/11/07 01:55:00;;;;;;;1860.03;308.37;;;8.90;99.90;;;;;;5126040;27;20241;-51
2022/11/07 01:57:33;;;;;;;909.83;249.67;;;8.90;99.90;;;;;;5125756;27;20242;-51
2022/11/07 02:00:05;;;;;;;591.57;148.80;;;8.90;99.90;;;;;;5122710;27;20711;-51
2022/11/07 02:02:34;;;;;;;775.10;198.73;;;8.90;99.90;;;;;;5130066;27;20203;-50
2022/11/07 02:05:04;;;;;;;1999.90;383.10;;;8.90;99.90;;;;;;5131228;27;20655;-54
2022/11/07 02:07:33;;;;;;;1999.90;345.37;;;8.90;99.90;;;;;;5130663;27;20259;-51
2022/11/07 02:10:03;;;;;;;1999.90;379.20;;;8.90;99.90;;;;;;5121782;27;20236;-51
2022/11/07 02:12:32;;;;;;;1632.00;356.10;;;8.90;99.90;;;;;;5123463;27;20200;-52
2022/11/07 02:15:01;;;;;;;1999.90;480.57;;;9.00;99.90;;;;;;5125381;27;20233;-50
2022/11/07 02:17:29;;;;;;;1864.07;382.77;;;8.90;99.90;;;;;;5126016;27;20678;-51
2022/11/07 02:19:57;;;;;;;1597.63;323.67;;;8.90;99.90;;;;;;5121869;27;20256;-50
2022/11/07 02:22:33;;;;;;;1999.90;698.57;;;8.90;99.90;;;;;;5125001;27;20203;-50
2022/11/07 02:25:06;;;;;;;1999.90;383.83;;;8.90;99.90;;;;;;5119469;27;20216;-50
2022/11/07 02:27:35;;;;;;;1547.03;336.33;;;8.90;99.90;;;;;;5131257;27;20874;-50
2022/11/07 02:30:07;;;;;;;1102.57;202.80;;;9.00;99.90;;;;;;5124894;27;20236;-49
2022/11/07 02:32:35;;;;;;;1999.90;406.97;;;9.00;99.90;;;;;;5125642;27;20210;-50
2022/11/07 02:35:07;;;;;;;1126.90;246.73;;;9.00;99.90;;;;;;5120382;27;20212;-50
2022/11/07 02:37:38;;;;;;;471.93;129.00;;;8.90;99.90;;;;;;5129471;27;20268;-51
2022/11/07 02:40:10;;;;;;;1999.90;536.03;;;8.90;99.90;;;;;;5130429;27;20214;-50
2022/11/07 02:42:45;;;;;;;1616.13;330.40;;;8.90;99.90;;;;;;5125784;27;20222;-50
2022/11/07 02:45:17;;;;;;;606.30;130.50;;;8.90;99.90;;;;;;5123411;27;20226;-50
2022/11/07 02:47:45;;;;;;;994.07;258.17;;;8.90;99.90;;;;;;5123852;27;20400;-51
2022/11/07 02:50:16;;;;;;;1550.97;327.63;;;8.90;99.90;;;;;;5130172;27;20249;-50
2022/11/07 02:52:44;;;;;;;1004.33;205.90;;;8.90;99.90;;;;;;5114666;27;20234;-50
2022/11/07 02:55:14;;;;;;;484.83;153.27;;;8.90;99.90;;;;;;5127104;27;20753;-51
2022/11/07 02:57:43;;;;;;;762.87;181.97;;;8.90;99.90;;;;;;5126959;27;20279;-51
2022/11/07 03:00:13;;;;;;;1557.93;346.87;;;8.90;99.90;;;;;;5121124;27;20203;-51
2022/11/07 03:02:45;;;;;;;313.37;88.80;;;8.90;99.90;;;;;;5119990;27;20202;-51
2022/11/07 03:05:15;;;;;;;590.63;193.57;;;9.00;99.90;;;;;;5130179;27;20245;-50
2022/11/07 03:07:43;;;;;;;838.53;232.47;;;9.00;99.90;;;;;;5130672;27;21034;-51
2022/11/07 03:10:14;;;;;;;932.53;227.77;;;9.00;99.90;;;;;;5121179;27;20292;-50
2022/11/07 03:12:42;;;;;;;487.70;151.23;;;9.00;99.90;;;;;;5122754;27;20248;-51
2022/11/07 03:15:12;;;;;;;879.00;213.97;;;9.00;99.90;;;;;;5130029;27;20290;-51
2022/11/07 03:17:40;;;;;;;375.10;96.63;;;9.00;99.90;;;;;;5130180;27;20244;-51
2022/11/07 03:20:10;;;;;;;697.63;135.63;;;9.00;99.90;;;;;;5122365;27;20290;-51
2022/11/07 03:22:38;;;;;;;716.47;186.37;;;9.00;99.90;;;;;;5123058;27;20203;-50
2022/11/07 03:25:07;;;;;;;616.30;155.40;;;9.00;99.90;;;;;;5123626;27;20217;-51
2022/11/07 03:27:38;;;;;;;1308.60;300.70;;;9.00;99.90;;;;;;5128682;27;20231;-51
2022/11/07 03:30:07;;;;;;;1268.70;243.53;;;9.00;99.90;;;;;;5120462;27;20306;-50
2022/11/07 03:32:35;;;;;;;1194.00;350.63;;;9.00;99.90;;;;;;5123387;27;20763;-50
2022/11/07 03:35:04;;;;;;;716.50;189.70;;;9.00;99.90;;;;;;5127244;27;20235;-50
2022/11/07 03:37:32;;;;;;;794.67;171.17;;;9.00;99.90;;;;;;5125781;27;20235;-51
2022/11/07 03:40:00;;;;;;;383.43;133.77;;;9.00;99.90;;;;;;5118833;27;20246;-51
2022/11/07 03:42:28;;;;;;;616.97;138.07;;;9.10;99.90;;;;;;5129370;27;20204;-50
2022/11/07 03:44:58;;;;;;;672.27;136.30;;;9.10;99.90;;;;;;5125331;27;20245;-51
2022/11/07 03:47:26;;;;;;;489.70;130.87;;;9.10;99.90;;;;;;5122526;27;20327;-51
2022/11/07 03:49:54;;;;;;;535.50;139.17;;;9.10;99.90;;;;;;5122010;27;20703;-50
2022/11/07 03:52:22;;;;;;;746.77;163.40;;;9.10;99.90;;;;;;5129863;27;20285;-51
2022/11/07 03:54:50;;;;;;;401.80;119.97;;;9.10;99.90;;;;;;5132388;27;20198;-50
2022/11/07 03:57:18;;;;;;;1102.27;212.63;;;9.10;99.90;;;;;;5134492;27;20209;-50
2022/11/07 03:59:47;;;;;;;597.30;137.17;;;9.20;99.90;;;;;;5117311;27;20287;-51
2022/11/07 04:02:16;;;;;;;659.47;115.27;;;9.10;99.90;;;;;;5123000;27;20270;-50
2022/11/07 04:04:44;;;;;;;595.80;140.50;;;9.20;99.90;;;;;;5129225;27;20359;-51
2022/11/07 04:07:13;;;;;;;547.63;135.87;;;9.20;99.90;;;;;;5130867;27;20645;-50
2022/11/07 04:09:41;;;;;;;951.40;229.30;;;9.20;99.90;;;;;;5126864;27;20260;-50
2022/11/07 04:17:42;;;;;;;695.97;135.93;;;9.10;99.90;;;;;;5121046;27;20302;-51
2022/11/07 04:20:11;;;;;;;941.73;148.50;;;9.10;99.90;;;;;;5126094;27;20243;-51
2022/11/07 04:22:39;;;;;;;955.00;201.13;;;9.20;99.90;;;;;;5120786;27;20296;-51
2022/11/07 04:25:08;;;;;;;470.83;130.83;;;9.20;99.90;;;;;;5115721;27;20307;-49
2022/11/07 04:27:41;;;;;;;497.77;111.53;;;9.20;99.90;;;;;;5120334;27;20614;-51
2022/11/07 04:30:24;;;;;;;627.80;217.20;;;9.10;99.90;;;;;;5125972;27;20248;-51
2022/11/07 04:32:55;;;;;;;1242.03;203.87;;;9.10;99.90;;;;;;5127900;27;20234;-51
2022/11/07 04:35:25;;;;;;;609.93;157.03;;;9.10;99.90;;;;;;5128692;27;20211;-51
2022/11/07 04:37:53;;;;;;;1603.47;321.93;;;9.10;99.90;;;;;;5122068;27;20940;-51
2022/11/07 04:40:22;;;;;;;978.40;244.83;;;9.10;99.90;;;;;;5129795;27;20307;-51
2022/11/07 04:42:50;;;;;;;1155.33;246.00;;;9.10;99.90;;;;;;5129101;27;20744;-51
2022/11/07 04:45:19;;;;;;;1369.80;250.13;;;9.10;99.90;;;;;;5129312;27;20655;-50
2022/11/07 04:47:47;;;;;;;1179.73;266.90;;;9.10;99.90;;;;;;5121855;27;20257;-50
2022/11/07 04:50:19;;;;;;;691.50;174.70;;;9.10;99.90;;;;;;5128301;27;20828;-51
2022/11/07 04:52:48;;;;;;;1722.27;313.23;;;9.10;99.90;;;;;;5127530;27;20285;-50
2022/11/07 04:55:20;;;;;;;1015.93;203.60;;;9.10;99.90;;;;;;5128500;27;20206;-51
2022/11/07 04:57:49;;;;;;;1503.90;310.03;;;9.10;99.90;;;;;;5119229;27;20200;-51
2022/11/07 05:00:18;;;;;;;1548.40;261.20;;;9.10;99.90;;;;;;5125773;27;21982;-51
2022/11/07 05:02:47;;;;;;;777.57;194.77;;;9.10;99.90;;;;;;5124231;27;20243;-50
2022/11/07 05:05:18;;;;;;;813.97;182.83;;;9.20;99.90;;;;;;5127806;27;20634;-50
2022/11/07 05:07:47;;;;;;;491.43;112.13;;;9.20;99.90;;;;;;5121414;27;20319;-51
2022/11/07 05:10:19;;;;;;;1216.37;244.33;;;9.30;99.90;;;;;;5123821;27;20707;-51
2022/11/07 05:12:48;;;;;;;745.67;164.17;;;9.20;99.90;;;;;;5129858;27;20242;-51
2022/11/07 05:15:16;;;;;;;1181.67;237.83;;;9.20;99.90;;;;;;5127042;27;20258;-51
2022/11/07 05:17:45;;;;;;;1563.00;280.67;;;9.20;99.90;;;;;;5122408;27;20740;-50
2022/11/07 05:20:29;;;;;;;1999.90;428.40;;;9.20;99.90;;;;;;5129135;27;20232;-51
2022/11/07 05:23:16;;;;;;;1036.43;203.83;;;9.20;99.90;;;;;;5134980;27;20242;-51
2022/11/07 05:25:47;;;;;;;1493.73;256.47;;;9.20;99.90;;;;;;5136029;27;20207;-51
2022/11/07 05:28:20;;;;;;;1970.27;397.83;;;9.20;99.90;;;;;;5131257;27;20249;-51
2022/11/07 05:31:02;;;;;;;1999.90;393.87;;;9.20;99.90;;;;;;5134001;27;20246;-51
2022/11/07 05:33:31;;;;;;;1230.20;249.17;;;9.20;99.90;;;;;;5128930;27;20295;-50
2022/11/07 05:36:10;;;;;;;1319.17;258.20;;;9.20;99.90;;;;;;5133121;27;20293;-50
2022/11/07 05:38:40;;;;;;;603.47;152.50;;;9.10;99.90;;;;;;5134698;27;20202;-50
2022/11/07 05:41:09;;;;;;;931.50;179.40;;;9.10;99.90;;;;;;5121508;27;20794;-51
2022/11/07 05:43:37;;;;;;;1999.90;437.90;;;9.10;99.90;;;;;;5126637;27;20207;-51
2022/11/07 05:46:06;;;;;;;635.40;114.67;;;9.10;99.90;;;;;;5135711;27;20207;-51
2022/11/07 05:48:34;;;;;;;621.40;148.83;;;9.10;99.90;;;;;;5131537;27;20719;-50
2022/11/07 05:51:03;;;;;;;802.33;197.90;;;9.10;99.90;;;;;;5134662;27;20719;-50
2022/11/07 05:53:33;;;;;;;369.37;88.70;;;9.10;99.90;;;;;;5129219;27;20294;-50
2022/11/07 05:56:01;;;;;;;1004.00;188.73;;;9.00;99.90;;;;;;5128683;27;20215;-50
2022/11/07 05:58:30;;;;;;;1930.97;404.83;;;9.00;99.90;;;;;;5119749;27;20294;-50
2022/11/07 06:01:01;;;;;;;1915.57;321.37;;;9.00;99.90;;;;;;5117895;27;20234;-51
2022/11/07 06:03:30;;;;;;;1142.43;276.07;;;9.00;99.90;;;;;;5121337;27;20294;-50
2022/11/07 06:05:59;;;;;;;202.77;56.77;;;9.00;99.90;;;;;;5127314;27;20335;-51
2022/11/07 06:08:27;;;;;;;1208.70;254.43;;;9.00;99.90;;;;;;5122840;27;20297;-50
2022/11/07 06:10:56;;;;;;;348.37;107.17;;;9.00;99.90;;;;;;5130882;27;20261;-51
2022/11/07 06:13:24;;;;;;;677.27;139.67;;;9.10;99.90;;;;;;5121926;27;20846;-51
2022/11/07 06:15:52;;;;;;;485.47;101.07;;;9.10;99.90;;;;;;5133305;27;20233;-49
2022/11/07 06:18:21;;;;;;;553.10;107.80;;;9.10;99.90;;;;;;5120778;27;20239;-50
2022/11/07 06:20:50;;;;;;;235.60;76.57;;;9.10;99.90;;;;;;5123393;27;20251;-50
2022/11/07 06:23:18;;;;;;;291.80;81.30;;;9.10;99.90;;;;;;5123998;27;20844;-51
2022/11/07 06:25:47;;;;;;;1500.27;313.33;;;9.20;99.90;;;;;;5131090;27;20209;-50
2022/11/07 06:28:20;;;;;;;579.43;140.23;;;9.20;99.90;;;;;;5125168;27;20756;-50
2022/11/07 06:30:49;;;;;;;312.67;81.87;;;9.30;99.90;;;;;;5125870;27;20650;-51
2022/11/07 06:33:19;;;;;;;1685.57;264.43;;;9.30;99.90;;;;;;5133078;27;20293;-51
2022/11/07 06:35:51;;;;;;;155.53;50.80;;;9.40;99.90;;;;;;5120678;27;20211;-50
2022/11/07 06:38:23;;;;;;;783.33;130.87;;;9.30;99.90;;;;;;5125347;27;20250;-50
2022/11/07 06:40:51;;;;;;;319.03;99.73;;;9.30;99.90;;;;;;5130320;27;20258;-51
2022/11/07 06:43:21;;;;;;;1207.73;219.77;;;9.40;99.90;;;;;;5132283;27;20204;-51
2022/11/07 06:45:49;;;;;;;723.33;154.60;;;9.40;99.90;;;;;;5130689;27;20294;-51
2022/11/07 06:48:17;;;;;;;1577.83;350.87;;;9.40;99.90;;;;;;5131454;27;20208;-51
2022/11/07 06:50:46;;;;;;;478.73;156.23;;;9.40;99.90;;;;;;5121489;27;20272;-50
2022/11/07 06:53:14;;;;;;;577.07;125.03;;;9.40;99.90;;;;;;5129290;27;20957;-51
2022/11/07 06:55:43;;;;;;;373.90;108.23;;;9.40;99.90;;;;;;5124535;27;21520;-51
2022/11/07 06:58:12;;;;;;;630.87;176.83;;;9.40;99.90;;;;;;5125629;27;20226;-51
2022/11/07 07:00:41;;;;;;;514.07;142.00;;;9.40;99.90;;;;;;5129552;27;20229;-51
2022/11/07 07:03:11;;;;;;;934.20;240.07;;;9.40;99.90;;;;;;5123659;27;20207;-49
2022/11/07 07:05:39;;;;;;;213.67;59.63;;;9.40;99.90;;;;;;5130799;27;20252;-51
2022/11/07 07:08:09;;;;;;;329.87;103.80;;;9.40;99.90;;;;;;5125101;27;20279;-49
2022/11/07 07:10:40;;;;;;;926.40;270.03;;;9.50;99.90;;;;;;5130866;27;20314;-50
2022/11/07 07:13:09;;;;;;;259.40;67.13;;;9.50;99.90;;;;;;5128794;27;20227;-51
2022/11/07 07:15:37;;;;;;;1009.67;206.53;;;9.60;99.90;;;;;;5125239;27;20294;-50
2022/11/07 07:18:19;;;;;;;399.63;103.90;;;9.60;99.90;;;;;;5122999;27;20232;-51
2022/11/07 07:20:48;;;;;;;576.57;145.07;;;9.50;99.90;;;;;;5121336;27;20226;-51
2022/11/07 07:23:17;;;;;;;1214.00;372.87;;;9.60;99.90;;;;;;5119791;27;20286;-50
2022/11/07 07:25:46;;;;;;;1116.17;219.30;;;9.60;99.90;;;;;;5122549;27;20264;-51
2022/11/07 07:28:14;;;;;;;860.57;235.80;;;9.60;99.90;;;;;;5125467;27;20756;-50
2022/11/07 07:30:42;;;;;;;750.40;208.73;;;9.60;99.90;;;;;;5128538;27;20219;-50
2022/11/07 07:33:19;;;;;;;691.10;208.30;;;9.60;99.90;;;;;;5124015;27;20225;-51
2022/11/07 07:35:47;;;;;;;404.00;152.70;;;9.60;99.90;;;;;;5121718;27;20253;-51
2022/11/07 07:38:16;;;;;;;645.40;182.40;;;9.70;99.90;;;;;;5127230;27;20199;-51
2022/11/07 07:40:44;;;;;;;544.27;137.90;;;9.70;99.90;;;;;;5128768;27;20774;-50
2022/11/07 07:43:12;;;;;;;1999.90;479.40;;;9.80;99.90;;;;;;5124666;27;20215;-51
2022/11/07 07:45:41;;;;;;;418.87;104.73;;;9.80;99.90;;;;;;5131054;27;20211;-51
2022/11/07 07:48:09;;;;;;;546.70;129.90;;;9.90;99.90;;;;;;5125657;27;20206;-51
2022/11/07 07:50:38;;;;;;;868.47;172.90;;;10.00;99.90;;;;;;5128960;27;20722;-51
2022/11/07 07:53:07;;;;;;;1999.90;443.53;;;10.10;99.90;;;;;;5131787;27;20298;-51
2022/11/07 07:55:36;;;;;;;1411.53;262.87;;;10.10;99.90;;;;;;5130976;27;20203;-50
2022/11/07 07:58:04;;;;;;;1049.30;217.33;;;10.20;99.90;;;;;;5116672;27;20236;-50
2022/11/07 08:00:32;;;;;;;1080.03;289.40;;;10.10;99.90;;;;;;5122638;27;20314;-50
2022/11/07 08:03:01;;;;;;;582.73;143.20;;;10.20;99.90;;;;;;5127421;27;20206;-50
2022/11/07 08:05:29;;;;;;;1231.57;207.00;;;10.30;99.90;;;;;;5130154;27;20225;-51
2022/11/07 08:07:59;;;;;;;1541.13;344.73;;;10.40;99.90;;;;;;5129116;27;20219;-51
2022/11/07 08:10:27;;;;;;;1795.40;379.47;;;10.50;99.90;;;;;;5119689;27;20315;-50
2022/11/07 08:13:09;;;;;;;708.00;152.87;;;10.50;99.90;;;;;;5133104;27;20291;-51
2022/11/07 08:15:38;;;;;;;1999.90;643.90;;;10.60;99.90;;;;;;5131009;27;20281;-50
2022/11/07 08:18:06;;;;;;;1361.13;254.00;;;10.60;99.90;;;;;;5122961;27;20260;-50
2022/11/07 08:20:34;;;;;;;1420.40;231.67;;;10.70;99.90;;;;;;5127344;27;20277;-51
2022/11/07 08:23:06;;;;;;;1532.73;331.37;;;10.80;99.90;;;;;;5123953;27;20621;-50
2022/11/07 08:25:43;;;;;;;1999.90;562.57;;;10.80;99.90;;;;;;5122730;27;20265;-50
2022/11/07 08:28:11;;;;;;;1999.90;691.60;;;10.90;99.90;;;;;;5117893;27;20295;-51
2022/11/07 08:30:39;;;;;;;1999.90;573.13;;;10.90;99.90;;;;;;5128675;27;20317;-50
2022/11/07 08:33:08;;;;;;;1999.90;505.00;;;11.00;99.90;;;;;;5124415;27;20213;-51
2022/11/07 08:35:36;;;;;;;1999.90;634.23;;;11.10;99.90;;;;;;5127654;27;20203;-50
2022/11/07 08:38:11;;;;;;;1988.90;476.30;;;11.20;99.90;;;;;;5122327;27;20226;-50
2022/11/07 08:40:39;;;;;;;1999.90;711.10;;;11.30;99.90;;;;;;5125806;27;20283;-51
2022/11/07 08:43:07;;;;;;;1999.90;659.57;;;11.40;99.90;;;;;;5118777;27;20230;-51
2022/11/07 08:45:35;;;;;;;1999.90;385.30;;;11.40;99.90;;;;;;5121373;27;20302;-51
2022/11/07 08:48:04;;;;;;;1999.90;610.80;;;11.30;99.90;;;;;;5129388;27;20671;-51
2022/11/07 08:50:32;;;;;;;1999.90;481.17;;;11.30;99.90;;;;;;5127095;27;20259;-52
2022/11/07 08:53:00;;;;;;;1999.90;758.07;;;11.30;99.90;;;;;;5126662;27;20239;-52
2022/11/07 08:55:31;;;;;;;1999.90;411.80;;;11.40;99.90;;;;;;5125169;27;20294;-52
2022/11/07 08:58:00;;;;;;;982.50;240.70;;;11.50;99.90;;;;;;5127655;27;20663;-51
2022/11/07 09:00:29;;;;;;;1319.67;284.33;;;11.50;99.90;;;;;;5120183;27;20227;-52
2022/11/07 09:03:00;;;;;;;1846.73;473.23;;;11.60;99.90;;;;;;5128267;27;20562;-51
2022/11/07 09:05:48;;;;;;;1999.90;686.73;;;11.60;99.90;;;;;;5125780;27;20207;-49
2022/11/07 09:08:16;;;;;;;1999.90;438.67;;;11.70;99.90;;;;;;5134068;27;20227;-51
2022/11/07 09:10:46;;;;;;;1605.17;456.93;;;11.70;99.90;;;;;;5134758;27;20753;-50
2022/11/07 09:13:14;;;;;;;1408.50;353.93;;;11.60;99.90;;;;;;5127579;27;20967;-51
2022/11/07 09:15:43;;;;;;;1999.90;561.73;;;11.60;99.90;;;;;;5129586;27;20225;-51
2022/11/07 09:18:18;;;;;;;1999.90;486.17;;;11.70;99.90;;;;;;5121394;27;20194;-52
2022/11/07 09:20:46;;;;;;;1999.90;503.60;;;11.60;99.90;;;;;;5124707;27;20227;-51
2022/11/07 09:23:14;;;;;;;1999.90;521.53;;;11.60;99.90;;;;;;5120530;27;20203;-52
2022/11/07 09:25:43;;;;;;;1994.20;525.37;;;11.60;99.90;;;;;;5123480;27;20203;-51
2022/11/07 09:28:13;;;;;;;1272.30;345.67;;;11.60;99.90;;;;;;5125060;27;20740;-51
2022/11/07 09:30:41;;;;;;;1913.77;416.50;;;11.70;99.90;;;;;;5125652;27;20227;-51
2022/11/07 09:33:09;;;;;;;1272.83;257.30;;;11.60;99.90;;;;;;5119290;27;20207;-51
2022/11/07 09:35:38;;;;;;;1999.90;370.00;;;11.70;99.90;;;;;;5121705;27;21010;-51
2022/11/07 09:38:06;;;;;;;1999.90;661.53;;;11.70;99.90;;;;;;5120621;27;20222;-50
2022/11/07 09:40:45;;;;;;;1999.90;725.80;;;11.70;99.90;;;;;;5133286;27;20654;-51
2022/11/07 09:43:33;;;;;;;1999.90;694.80;;;11.80;99.90;;;;;;5124506;28;20245;-51
2022/11/07 09:46:10;;;;;;;525.60;127.90;;;11.90;99.90;;;;;;5129152;27;20356;-51
2022/11/07 09:48:44;;;;;;;1999.90;424.87;;;11.90;99.90;;;;;;5120540;27;20226;-50
2022/11/07 09:51:16;;;;;;;1942.00;436.97;;;11.90;99.90;;;;;;5121747;27;20226;-52
2022/11/07 09:53:50;;;;;;;1999.90;476.80;;;11.90;99.90;;;;;;5130846;27;20233;-52
2022/11/07 09:56:18;;;;;;;1244.37;274.10;;;12.00;99.90;;;;;;5131229;27;20731;-51
2022/11/07 09:58:53;;;;;;;1999.90;690.00;;;12.10;99.90;;;;;;5122217;27;20314;-52
2022/11/07 10:01:22;;;;;;;942.73;196.67;;;12.20;99.90;;;;;;5127194;27;20301;-51
2022/11/07 10:03:51;;;;;;;1576.37;378.50;;;12.30;99.90;;;;;;5127922;27;20347;-51
2022/11/07 10:06:46;;;;;;;1999.90;569.27;;;12.30;99.90;;;;;;5135970;27;20217;-51
2022/11/07 10:09:20;;;;;;;1011.93;275.73;;;12.30;99.90;;;;;;5121757;27;20226;-50
2022/11/07 10:11:57;;;;;;;1564.40;293.40;;;12.40;99.90;;;;;;5123116;27;20260;-51
2022/11/07 10:14:36;;;;;;;1999.90;706.10;;;12.40;99.90;;;;;;5122395;27;20231;-51
2022/11/07 10:17:14;;;;;;;1999.90;506.60;;;12.40;99.90;;;;;;5137041;27;20683;-52
2022/11/07 10:19:57;;;;;;;1784.80;426.40;;;12.40;99.90;;;;;;5126740;27;20230;-51
2022/11/07 10:22:37;;;;;;;1998.00;535.23;;;12.40;99.90;;;;;;5128698;27;20250;-51
2022/11/07 10:25:19;;;;;;;1901.33;473.03;;;12.30;99.90;;;;;;5125063;27;20230;-50
2022/11/07 10:27:52;;;;;;;1925.57;496.90;;;12.30;99.90;;;;;;5128766;27;20215;-51
2022/11/07 10:30:22;;;;;;;1999.90;755.03;;;12.40;99.90;;;;;;5126967;27;20912;-51
2022/11/07 10:32:58;;;;;;;1999.90;772.33;;;12.50;99.90;;;;;;5126394;27;20644;-51
2022/11/07 10:35:30;;;;;;;1999.90;720.60;;;12.60;99.90;;;;;;5126420;27;20694;-51
2022/11/07 10:38:00;;;;;;;1152.27;265.80;;;12.60;99.90;;;;;;5126583;27;20242;-51
2022/11/07 10:40:37;;;;;;;1999.90;527.30;;;12.60;99.90;;;;;;5127757;27;21013;-50
2022/11/07 10:43:12;;;;;;;1999.90;510.07;;;12.70;99.90;;;;;;5125370;27;20200;-52
2022/11/07 10:45:43;;;;;;;1955.97;434.70;;;12.60;99.90;;;;;;5129878;27;20203;-51
2022/11/07 10:48:13;;;;;;;1606.47;369.47;;;12.70;99.90;;;;;;5120923;27;20227;-50
2022/11/07 10:50:51;;;;;;;1427.80;376.37;;;12.70;99.90;;;;;;5127993;27;20232;-50
2022/11/07 10:53:21;;;;;;;1813.97;505.03;;;12.70;99.90;;;;;;5123808;27;20219;-51
2022/11/07 10:55:51;;;;;;;1999.90;582.00;;;12.80;99.90;;;;;;5122283;27;20716;-50
2022/11/07 10:58:21;;;;;;;1999.90;674.13;;;12.90;99.90;;;;;;5132675;27;20223;-51
2022/11/07 11:01:09;;;;;;;1999.90;536.07;;;13.00;99.90;;;;;;5123886;27;20255;-51
2022/11/07 11:03:41;;;;;;;1999.90;653.97;;;13.00;99.90;;;;;;5123630;27;20247;-49
2022/11/07 11:06:21;;;;;;;1654.57;490.43;;;13.10;99.90;;;;;;5131528;27;20284;-50
2022/11/07 11:08:51;;;;;;;1999.90;822.97;;;13.10;99.90;;;;;;5125033;27;20267;-51
2022/11/07 11:11:30;;;;;;;1999.90;553.77;;;13.20;99.90;;;;;;5126719;27;20298;-51
2022/11/07 11:14:03;;;;;;;1999.90;701.33;;;13.30;99.90;;;;;;5122237;27;20290;-50
2022/11/07 11:16:37;;;;;;;1999.90;649.27;;;13.30;99.90;;;;;;5131058;27;20203;-50
2022/11/07 11:19:06;;;;;;;1999.90;579.40;;;13.20;99.90;;;;;;5127767;27;20233;-50
2022/11/07 11:21:42;;;;;;;1648.13;501.40;;;13.20;99.90;;;;;;5122467;27;20746;-51
2022/11/07 11:24:30;;;;;;;1999.90;666.37;;;13.20;99.90;;;;;;5126186;27;20206;-50
2022/11/07 11:27:02;;;;;;;1938.63;540.93;;;13.20;99.90;;;;;;5127099;27;20231;-50
2022/11/07 11:29:39;;;;;;;1911.87;502.97;;;13.20;99.90;;;;;;5125643;27;20210;-51
2022/11/07 11:32:20;;;;;;;1921.30;495.57;;;13.20;99.90;;;;;;5125301;27;20254;-51
2022/11/07 11:35:05;;;;;;;1999.90;615.20;;;13.20;99.90;;;;;;5131705;27;20199;-49
2022/11/07 11:37:38;;;;;;;1999.90;625.03;;;13.20;99.90;;;;;;5136794;27;20666;-50
2022/11/07 11:40:13;;;;;;;1999.90;833.07;;;13.20;99.90;;;;;;5137791;27;20242;-51
2022/11/07 11:42:49;;;;;;;1999.90;630.83;;;13.20;99.90;;;;;;5132022;27;20293;-51
2022/11/07 11:45:21;;;;;;;1691.13;479.53;;;13.20;99.90;;;;;;5137236;27;20206;-51
2022/11/07 11:47:58;;;;;;;1310.10;405.63;;;13.10;99.90;;;;;;5134884;27;20276;-50
2022/11/07 11:50:34;;;;;;;1993.03;541.47;;;13.10;99.90;;;;;;5135494;27;20228;-50
2022/11/07 11:53:03;;;;;;;1999.90;640.83;;;13.00;99.90;;;;;;5136977;27;20240;-50
2022/11/07 11:55:38;;;;;;;1999.90;734.00;;;13.00;99.90;;;;;;5130276;27;20235;-51
2022/11/07 11:58:18;;;;;;;1999.90;668.77;;;12.90;99.90;;;;;;5131696;27;20202;-51
2022/11/07 12:00:52;;;;;;;1999.90;851.87;;;12.90;99.90;;;;;;5130244;27;20223;-51
2022/11/07 12:03:34;;;;;;;1999.90;576.37;;;12.90;99.90;;;;;;5118971;27;20679;-50
2022/11/07 12:06:21;;;;;;;1999.90;457.30;;;13.00;99.90;;;;;;5128461;27;20213;-51
2022/11/07 12:09:13;;;;;;;1999.90;622.27;;;13.00;99.90;;;;;;5119512;27;20203;-51
2022/11/07 12:11:59;;;;;;;1999.90;648.70;;;13.00;99.90;;;;;;5124507;27;20229;-51
2022/11/07 12:14:54;;;;;;;1999.90;555.83;;;12.90;99.90;;;;;;5119313;27;20656;-51
2022/11/07 12:17:32;;;;;;;1939.70;448.03;;;12.90;99.90;;;;;;5127018;27;20211;-50
2022/11/07 12:20:10;;;;;;;1999.90;599.23;;;12.90;99.90;;;;;;5119499;27;20234;-50
2022/11/07 12:22:48;;;;;;;1871.83;453.50;;;13.00;99.90;;;;;;5117680;27;20250;-51
2022/11/07 12:25:23;;;;;;;1983.37;519.30;;;13.00;99.90;;;;;;5120761;27;20198;-51
2022/11/07 12:28:00;;;;;;;1999.90;620.90;;;13.00;99.90;;;;;;5125978;27;20210;-49
2022/11/07 12:30:38;;;;;;;1896.63;402.57;;;13.00;99.90;;;;;;5128889;27;20229;-51
2022/11/07 12:33:18;;;;;;;1791.23;664.13;;;13.10;99.90;;;;;;5120998;27;20768;-50
2022/11/07 12:35:54;;;;;;;1993.57;494.93;;;13.10;99.90;;;;;;5117671;27;20294;-51